Time;durP1;ratioP1;P1;durP2;ratioP2;P2;SDS_P1;SDS_P2;PMS_P1;PMS_P2;Temp;Humidity;BMP_temperature;BMP_pressure;BME280_temperature;BME280_humidity;BME280_pressure;Samples;Min_cycle;Max_cycle;Signal;HPM_P1;HPM_P2
2021/10/26 00:00:20;;;;;;;57.13;24.27;;;;;;;9.99;100.00;101833.84;5160842;28;20101;-73
2021/10/26 00:02:51;;;;;;;58.05;23.95;;;;;;;9.94;100.00;101834.28;5161116;28;20256;-74
2021/10/26 00:05:21;;;;;;;62.67;24.13;;;;;;;9.89;100.00;101841.91;5161460;28;20026;-74
2021/10/26 00:07:52;;;;;;;53.40;24.15;;;;;;;9.83;100.00;101848.63;5161000;28;20019;-75
2021/10/26 00:10:22;;;;;;;54.67;23.30;;;;;;;9.78;100.00;101850.88;5160349;28;20372;-73
2021/10/26 00:12:53;;;;;;;57.00;23.92;;;;;;;9.74;100.00;101854.84;5160537;28;20022;-73
2021/10/26 00:15:23;;;;;;;56.85;24.67;;;;;;;9.78;100.00;101856.22;5160915;28;20443;-74
2021/10/26 00:17:54;;;;;;;58.10;24.38;;;;;;;9.79;100.00;101851.75;5161126;28;20026;-73
2021/10/26 00:20:25;;;;;;;62.92;25.17;;;;;;;9.81;100.00;101855.13;5160530;28;20053;-73
2021/10/26 00:22:55;;;;;;;59.38;24.25;;;;;;;9.78;100.00;101844.66;5160932;28;20146;-74
2021/10/26 00:25:27;;;;;;;57.17;24.65;;;;;;;9.74;100.00;101838.75;5160800;28;20074;-72
2021/10/26 00:27:58;;;;;;;59.38;23.80;;;;;;;9.67;100.00;101836.75;5161045;28;20046;-73
2021/10/26 00:30:28;;;;;;;55.13;23.05;;;;;;;9.63;100.00;101840.69;5160836;28;20496;-74
2021/10/26 00:33:00;;;;;;;60.38;24.38;;;;;;;9.56;100.00;101846.59;5160928;28;20038;-73
2021/10/26 00:35:31;;;;;;;59.67;23.27;;;;;;;9.51;100.00;101851.50;5160242;28;20019;-74
2021/10/26 00:38:01;;;;;;;58.17;23.45;;;;;;;9.47;100.00;101863.47;5160338;28;20097;-73
2021/10/26 00:40:32;;;;;;;58.65;22.60;;;;;;;9.51;100.00;101864.91;5157669;28;20022;-73
2021/10/26 00:43:03;;;;;;;64.03;25.70;;;;;;;9.47;100.00;101859.94;5160609;28;20029;-73
2021/10/26 00:45:33;;;;;;;66.97;23.65;;;;;;;9.39;100.00;101865.97;5160572;28;20027;-73
2021/10/26 00:48:04;;;;;;;60.50;23.52;;;;;;;9.31;100.00;101869.31;5159128;28;20112;-73
2021/10/26 00:50:35;;;;;;;63.20;23.75;;;;;;;9.23;100.00;101873.63;5160325;28;20026;-73
2021/10/26 00:53:06;;;;;;;65.82;22.92;;;;;;;9.23;100.00;101866.44;5160551;28;20081;-73
2021/10/26 00:55:37;;;;;;;64.40;24.27;;;;;;;9.30;100.00;101867.63;5160357;28;20018;-73
2021/10/26 00:58:07;;;;;;;64.45;24.17;;;;;;;9.31;100.00;101871.13;5160778;28;20395;-73
2021/10/26 01:00:38;;;;;;;60.17;24.48;;;;;;;9.36;100.00;101871.59;5159887;28;20026;-73
2021/10/26 01:03:09;;;;;;;60.20;22.25;;;;;;;9.30;100.00;101869.44;5160605;28;20025;-73
2021/10/26 01:05:40;;;;;;;62.13;23.75;;;;;;;9.24;100.00;101870.00;5160930;28;20023;-73
2021/10/26 01:08:11;;;;;;;63.55;24.05;;;;;;;9.20;100.00;101877.44;5160510;28;20383;-75
2021/10/26 01:10:42;;;;;;;66.03;23.42;;;;;;;9.18;100.00;101873.16;5160480;28;20459;-73
2021/10/26 01:13:14;;;;;;;65.82;23.48;;;;;;;9.15;100.00;101881.50;5160325;28;20109;-72
2021/10/26 01:15:57;;;;;;;66.90;23.55;;;;;;;9.12;100.00;101876.38;5160533;28;20023;-73
2021/10/26 01:18:28;;;;;;;68.43;24.83;;;;;;;9.08;100.00;101884.66;5160544;28;20061;-72
2021/10/26 01:21:06;;;;;;;79.43;24.42;;;;;;;9.00;100.00;101871.09;5160330;28;20065;-72
2021/10/26 01:23:37;;;;;;;69.60;24.48;;;;;;;8.96;100.00;101875.03;5162151;28;20062;-72
2021/10/26 01:26:26;;;;;;;74.82;25.55;;;;;;;8.92;100.00;101865.53;5164637;28;20543;-72
2021/10/26 01:29:04;;;;;;;74.78;25.58;;;;;;;8.91;100.00;101866.53;5164179;28;20045;-73
2021/10/26 01:31:34;;;;;;;71.13;24.02;;;;;;;8.85;100.00;101864.38;5164385;28;20018;-72
2021/10/26 01:34:05;;;;;;;74.03;25.33;;;;;;;8.86;100.00;101874.09;5164026;28;20113;-73
2021/10/26 01:36:36;;;;;;;68.47;23.75;;;;;;;8.84;100.00;101875.22;5164355;28;20033;-72
2021/10/26 01:39:06;;;;;;;65.65;24.58;;;;;;;8.78;100.00;101876.56;5162397;28;20026;-75
2021/10/26 01:41:36;;;;;;;65.65;24.95;;;;;;;8.73;100.00;101881.47;5164660;28;20030;-72
2021/10/26 01:44:07;;;;;;;73.68;25.90;;;;;;;8.67;100.00;101869.44;5163906;28;20022;-72
2021/10/26 01:46:38;;;;;;;70.70;25.20;;;;;;;8.67;100.00;101869.44;5163441;28;20030;-73
2021/10/26 01:49:09;;;;;;;77.13;26.85;;;;;;;8.70;100.00;101871.03;5162639;28;20034;-73
2021/10/26 01:51:40;;;;;;;82.40;26.65;;;;;;;8.68;100.00;101873.81;5163910;28;20026;-72
2021/10/26 01:54:11;;;;;;;85.65;26.98;;;;;;;8.69;100.00;101878.22;5163978;28;20030;-73
2021/10/26 01:56:42;;;;;;;82.63;27.08;;;;;;;8.68;100.00;101871.13;5163465;28;20030;-73
2021/10/26 01:59:13;;;;;;;70.32;24.15;;;;;;;8.64;100.00;101871.56;5163254;28;20030;-72
2021/10/26 02:01:44;;;;;;;88.43;27.13;;;;;;;8.59;100.00;101873.78;5163464;28;20030;-73
2021/10/26 02:04:15;;;;;;;84.30;26.65;;;;;;;8.54;100.00;101869.66;5163692;28;20476;-74
2021/10/26 02:06:45;;;;;;;78.85;26.08;;;;;;;8.51;100.00;101867.22;5163231;28;20067;-73
2021/10/26 02:09:16;;;;;;;91.32;28.88;;;;;;;8.47;100.00;101863.09;5162945;28;20022;-73
2021/10/26 02:11:47;;;;;;;77.43;26.15;;;;;;;8.50;100.00;101860.19;5163325;28;20105;-73
2021/10/26 02:14:18;;;;;;;76.05;26.67;;;;;;;8.50;100.00;101860.19;5163658;28;20030;-73
2021/10/26 02:16:49;;;;;;;85.38;27.42;;;;;;;8.48;100.00;101872.84;5163170;28;20034;-75
2021/10/26 02:19:20;;;;;;;84.10;27.38;;;;;;;8.46;100.00;101860.56;5163193;28;20030;-74
2021/10/26 02:21:50;;;;;;;93.50;29.98;;;;;;;8.48;100.00;101867.50;5163157;28;20041;-74
2021/10/26 02:24:21;;;;;;;79.22;26.30;;;;;;;8.43;100.00;101867.00;5163178;28;20041;-74
2021/10/26 02:26:52;;;;;;;81.43;27.08;;;;;;;8.38;100.00;101879.03;5163258;28;20084;-73
2021/10/26 02:29:23;;;;;;;83.03;27.40;;;;;;;8.38;100.00;101868.34;5163081;28;20034;-73
2021/10/26 02:31:54;;;;;;;82.10;27.75;;;;;;;8.36;100.00;101873.84;5161996;28;20022;-73
2021/10/26 02:34:24;;;;;;;73.82;26.65;;;;;;;8.35;100.00;101879.28;5162415;28;20037;-74
2021/10/26 02:36:56;;;;;;;79.30;25.83;;;;;;;8.28;100.00;101879.81;5162817;28;20034;-73
2021/10/26 02:39:27;;;;;;;73.07;25.63;;;;;;;8.21;100.00;101885.75;5161924;28;20028;-74
2021/10/26 02:41:57;;;;;;;73.80;26.98;;;;;;;8.15;100.00;101888.94;5163096;28;20464;-74
2021/10/26 02:44:28;;;;;;;74.50;27.10;;;;;;;8.13;100.00;101891.72;5162921;28;20054;-75
2021/10/26 02:46:58;;;;;;;83.45;26.65;;;;;;;8.11;100.00;101895.50;5162307;28;20037;-74
2021/10/26 02:49:29;;;;;;;67.38;23.88;;;;;;;8.07;100.00;101892.22;5162795;28;20061;-74
2021/10/26 02:51:59;;;;;;;65.68;23.27;;;;;;;7.98;100.00;101890.28;5162873;28;20026;-74
2021/10/26 02:54:30;;;;;;;86.97;25.48;;;;;;;7.93;100.00;101890.69;5163164;28;20053;-74
2021/10/26 02:57:01;;;;;;;75.32;24.30;;;;;;;7.92;100.00;101888.97;5162370;28;20048;-73
2021/10/26 02:59:31;;;;;;;85.95;24.80;;;;;;;7.86;100.00;101889.47;5162306;28;20544;-72
2021/10/26 03:02:02;;;;;;;74.47;25.45;;;;;;;7.89;100.00;101894.56;5161111;28;20037;-74
2021/10/26 03:04:33;;;;;;;71.68;24.40;;;;;;;7.92;100.00;101894.31;5162229;28;20030;-73
2021/10/26 03:07:03;;;;;;;72.32;23.83;;;;;;;7.95;100.00;101891.41;5162391;28;20027;-73
2021/10/26 03:09:34;;;;;;;80.25;24.55;;;;;;;7.92;100.00;101894.31;5161901;28;20026;-73
2021/10/26 03:12:05;;;;;;;80.95;25.45;;;;;;;7.90;100.00;101898.94;5162035;28;20404;-73
2021/10/26 03:14:35;;;;;;;77.82;26.92;;;;;;;7.99;100.00;101900.88;5162403;28;20029;-73
2021/10/26 03:17:06;;;;;;;78.80;25.63;;;;;;;8.08;100.00;101893.06;5162305;28;20434;-72
2021/10/26 03:19:36;;;;;;;80.53;25.75;;;;;;;8.10;100.00;101904.50;5161547;28;20030;-72
2021/10/26 03:22:07;;;;;;;75.13;24.27;;;;;;;8.08;100.00;101899.25;5162111;28;20034;-72
2021/10/26 03:24:37;;;;;;;81.55;25.15;;;;;;;8.12;100.00;101903.38;5161868;28;20555;-73
2021/10/26 03:27:08;;;;;;;90.80;25.88;;;;;;;8.15;100.00;101902.31;5161845;28;20476;-73
2021/10/26 03:29:39;;;;;;;83.13;26.25;;;;;;;8.13;100.00;101901.56;5161671;28;20394;-72
2021/10/26 03:32:09;;;;;;;83.53;24.13;;;;;;;8.11;100.00;101904.38;5162032;28;20113;-72
2021/10/26 03:34:40;;;;;;;71.15;23.88;;;;;;;8.08;100.00;101903.75;5161960;28;20365;-73
2021/10/26 03:37:10;;;;;;;82.20;24.27;;;;;;;8.02;100.00;101899.75;5160402;28;20034;-73
2021/10/26 03:39:41;;;;;;;72.15;23.88;;;;;;;7.98;100.00;101907.19;5160338;28;20498;-72
2021/10/26 03:42:12;;;;;;;71.03;23.75;;;;;;;7.97;100.00;101907.31;5161858;28;20105;-72
2021/10/26 03:44:43;;;;;;;76.40;23.00;;;;;;;7.98;100.00;101899.19;5161657;28;20556;-72
2021/10/26 03:47:13;;;;;;;79.80;21.83;;;;;;;7.95;100.00;101899.41;5160482;28;20077;-72
2021/10/26 03:49:44;;;;;;;73.15;23.55;;;;;;;7.91;100.00;101902.47;5161277;28;20434;-72
2021/10/26 03:52:14;;;;;;;85.53;22.75;;;;;;;7.85;100.00;101903.81;5161432;28;20073;-73
2021/10/26 03:54:45;;;;;;;74.90;24.75;;;;;;;7.86;100.00;101896.63;5161576;28;20046;-73
2021/10/26 03:57:16;;;;;;;79.35;24.17;;;;;;;7.86;100.00;101902.81;5161286;28;20030;-72
2021/10/26 03:59:46;;;;;;;71.15;23.88;;;;;;;7.89;100.00;101907.09;5160842;28;20026;-72
2021/10/26 04:02:23;;;;;;;83.55;25.25;;;;;;;7.87;100.00;101909.88;5161197;28;20014;-72
2021/10/26 04:05:05;;;;;;;75.57;22.73;;;;;;;7.80;100.00;101911.34;5161064;28;20026;-72
2021/10/26 04:07:37;;;;;;;73.85;22.65;;;;;;;7.72;100.00;101917.28;5161678;28;20022;-72
2021/10/26 04:10:14;;;;;;;76.13;23.10;;;;;;;7.64;100.00;101914.38;5160631;28;20030;-72
2021/10/26 04:12:45;;;;;;;75.40;23.17;;;;;;;7.58;100.00;101917.53;5161311;28;20215;-72
2021/10/26 04:15:15;;;;;;;81.65;23.30;;;;;;;7.55;100.00;101917.78;5161132;28;20022;-72
2021/10/26 04:17:46;;;;;;;85.50;25.13;;;;;;;7.60;100.00;101922.75;5161043;28;20045;-72
2021/10/26 04:20:16;;;;;;;77.95;24.27;;;;;;;7.61;100.00;101919.94;5161069;28;20022;-72
2021/10/26 04:22:47;;;;;;;87.20;25.65;;;;;;;7.64;100.00;101921.53;5161029;28;20038;-72
2021/10/26 04:25:17;;;;;;;74.97;23.90;;;;;;;7.62;100.00;101921.66;5160891;28;20306;-72
2021/10/26 04:27:48;;;;;;;74.40;22.25;;;;;;;7.58;100.00;101925.56;5160864;28;20036;-72
2021/10/26 04:30:19;;;;;;;66.45;21.45;;;;;;;7.59;100.00;101931.75;5160773;28;20037;-72
2021/10/26 04:32:49;;;;;;;75.07;22.20;;;;;;;7.58;100.00;101925.56;5160678;28;20069;-72
2021/10/26 04:35:20;;;;;;;70.50;21.20;;;;;;;7.55;100.00;101928.44;5160326;28;20456;-72
2021/10/26 04:37:52;;;;;;;63.70;20.70;;;;;;;7.48;100.00;101933.44;5160807;28;20108;-72
2021/10/26 04:40:24;;;;;;;81.53;19.35;;;;;;;7.41;100.00;101942.88;5159055;28;20022;-74
2021/10/26 04:42:54;;;;;;;72.97;19.65;;;;;;;7.35;100.00;101942.50;5160931;28;20057;-74
2021/10/26 04:45:25;;;;;;;71.57;20.30;;;;;;;7.27;100.00;101943.94;5160513;28;20036;-74
2021/10/26 04:47:55;;;;;;;394.85;25.00;;;;;;;7.20;100.00;101945.38;5160586;28;20026;-74
2021/10/26 04:50:30;;;;;;;161.40;20.25;;;;;;;7.11;100.00;101939.91;5160268;28;20307;-75
2021/10/26 04:53:01;;;;;;;252.18;23.02;;;;;;;7.04;100.00;101938.69;5160636;28;20436;-73
2021/10/26 04:55:31;;;;;;;226.45;23.58;;;;;;;6.96;100.00;101937.41;5160335;28;20086;-75
2021/10/26 04:58:01;;;;;;;181.60;19.13;;;;;;;6.90;100.00;101947.72;5163126;28;20412;-74
2021/10/26 05:00:32;;;;;;;130.18;19.80;;;;;;;6.84;100.00;101942.84;5164617;28;20076;-73
2021/10/26 05:03:03;;;;;;;260.50;26.40;;;;;;;6.80;100.00;101942.22;5164964;28;20031;-71
2021/10/26 05:05:34;;;;;;;87.40;18.77;;;;;;;6.76;100.00;101948.75;5164730;28;20027;-72
2021/10/26 05:08:04;;;;;;;220.30;21.88;;;;;;;6.70;100.00;101952.72;5164544;28;20029;-71
2021/10/26 05:10:35;;;;;;;77.15;22.20;;;;;;;6.73;100.00;101954.31;5164703;28;20045;-71
2021/10/26 05:13:05;;;;;;;89.88;24.35;;;;;;;6.78;100.00;101949.50;5164729;28;20357;-74
2021/10/26 05:15:36;;;;;;;76.88;21.15;;;;;;;6.80;100.00;101941.38;5164651;28;20029;-72
2021/10/26 05:18:06;;;;;;;88.20;20.48;;;;;;;6.77;100.00;101945.09;5164295;28;20472;-74
2021/10/26 05:20:38;;;;;;;229.80;24.85;;;;;;;6.71;100.00;101940.22;5164351;28;20018;-73
2021/10/26 05:23:10;;;;;;;229.73;22.25;;;;;;;6.68;100.00;101948.47;5164118;28;20278;-73
2021/10/26 05:25:41;;;;;;;87.65;24.13;;;;;;;6.63;100.00;101946.16;5164060;28;20033;-73
2021/10/26 05:28:11;;;;;;;110.68;28.70;;;;;;;6.65;100.00;101954.88;5164493;28;20034;-73
2021/10/26 05:30:42;;;;;;;94.65;25.70;;;;;;;6.71;100.00;101954.41;5164189;28;20475;-73
2021/10/26 05:33:13;;;;;;;105.63;28.55;;;;;;;6.74;100.00;101956.03;5164367;28;20503;-74
2021/10/26 05:35:44;;;;;;;103.10;28.08;;;;;;;6.83;100.00;101954.47;5164033;28;20026;-73
2021/10/26 05:38:14;;;;;;;113.80;29.55;;;;;;;6.84;100.00;101966.84;5164254;28;20029;-73
2021/10/26 05:40:45;;;;;;;92.55;26.83;;;;;;;6.87;100.00;101963.94;5161401;28;20034;-73
2021/10/26 05:43:15;;;;;;;110.43;27.48;;;;;;;6.92;100.00;101975.97;5164061;28;20106;-73
2021/10/26 05:45:46;;;;;;;106.50;29.73;;;;;;;6.95;100.00;101972.22;5164365;28;20408;-73
2021/10/26 05:48:16;;;;;;;103.05;28.70;;;;;;;6.93;100.00;101975.03;5164015;28;20033;-74
2021/10/26 05:50:47;;;;;;;97.28;27.58;;;;;;;6.92;100.00;101967.97;5164399;28;20022;-73
2021/10/26 05:53:18;;;;;;;103.85;28.40;;;;;;;6.90;100.00;101985.06;5164208;28;20072;-74
2021/10/26 05:55:48;;;;;;;89.05;28.25;;;;;;;6.94;100.00;101976.72;5163887;28;20030;-72
2021/10/26 05:58:19;;;;;;;128.27;27.63;;;;;;;6.91;100.00;101982.28;5163861;28;20018;-72
2021/10/26 06:00:49;;;;;;;91.82;24.48;;;;;;;6.87;100.00;101975.47;5163328;28;20466;-73
2021/10/26 06:03:20;;;;;;;99.63;27.20;;;;;;;6.86;100.00;101986.25;5163560;28;20022;-72
2021/10/26 06:05:51;;;;;;;94.80;27.33;;;;;;;6.83;100.00;101992.69;5163861;28;20476;-72
2021/10/26 06:08:21;;;;;;;94.72;28.55;;;;;;;6.83;100.00;101991.81;5162796;28;20544;-72
2021/10/26 06:10:57;;;;;;;117.13;29.67;;;;;;;6.85;100.00;101988.06;5163111;28;20046;-72
2021/10/26 06:13:31;;;;;;;96.63;28.23;;;;;;;6.88;100.00;101989.69;5163409;28;20499;-72
2021/10/26 06:16:03;;;;;;;104.90;27.10;;;;;;;6.96;100.00;101996.13;5163216;28;20026;-72
2021/10/26 06:18:33;;;;;;;116.78;31.63;;;;;;;6.99;100.00;101995.06;5163315;28;20189;-72
2021/10/26 06:21:04;;;;;;;107.30;29.40;;;;;;;7.14;100.00;102006.38;5162796;28;20030;-72
2021/10/26 06:23:34;;;;;;;116.05;31.10;;;;;;;7.18;100.00;102005.19;5163379;28;20026;-72
2021/10/26 06:26:04;;;;;;;104.03;29.05;;;;;;;7.17;100.00;102008.81;5162942;28;20033;-72
2021/10/26 06:28:35;;;;;;;117.70;32.17;;;;;;;7.25;100.00;102014.44;5163119;28;20147;-72
2021/10/26 06:31:05;;;;;;;102.75;30.98;;;;;;;7.30;100.00;102014.94;5162961;28;20054;-72
2021/10/26 06:33:36;;;;;;;125.45;34.05;;;;;;;7.35;100.00;102015.44;5163335;28;20146;-73
2021/10/26 06:36:07;;;;;;;104.80;31.67;;;;;;;7.38;100.00;102017.88;5162498;28;20501;-72
2021/10/26 06:38:38;;;;;;;125.85;33.45;;;;;;;7.42;100.00;102011.31;5161398;28;20030;-73
2021/10/26 06:41:09;;;;;;;127.00;33.17;;;;;;;7.49;100.00;102020.56;5162919;28;20038;-73
2021/10/26 06:43:39;;;;;;;131.52;35.50;;;;;;;7.57;100.00;102017.28;5162965;28;20464;-72
2021/10/26 06:46:10;;;;;;;120.50;34.60;;;;;;;7.56;100.00;102020.09;5162917;28;20041;-72
2021/10/26 06:48:40;;;;;;;120.60;33.38;;;;;;;7.58;100.00;102015.47;5162331;28;20262;-72
2021/10/26 06:51:11;;;;;;;124.03;34.53;;;;;;;7.63;100.00;102021.31;5162487;28;20049;-72
2021/10/26 06:53:41;;;;;;;115.57;32.90;;;;;;;7.64;100.00;102013.19;5161481;28;20538;-72
2021/10/26 06:56:15;;;;;;;125.43;32.10;;;;;;;7.72;100.00;102010.75;5162992;28;20029;-72
2021/10/26 06:58:45;;;;;;;114.78;30.85;;;;;;;7.71;100.00;102017.09;5162445;28;20539;-72
2021/10/26 07:01:16;;;;;;;108.22;31.80;;;;;;;7.75;100.00;102021.22;5162331;28;20161;-72
2021/10/26 07:03:47;;;;;;;105.40;30.88;;;;;;;7.83;100.00;102026.00;5162619;28;20072;-72
2021/10/26 07:06:17;;;;;;;113.60;30.38;;;;;;;7.91;100.00;102026.22;5162261;28;20037;-73
2021/10/26 07:08:48;;;;;;;117.18;33.45;;;;;;;8.03;100.00;102025.28;5162291;28;20121;-73
2021/10/26 07:11:19;;;;;;;121.80;32.83;;;;;;;8.17;100.00;102034.00;5162125;28;20480;-73
2021/10/26 07:13:50;;;;;;;105.78;32.55;;;;;;;8.37;100.00;102029.78;5162470;28;20228;-73
2021/10/26 07:16:20;;;;;;;101.75;30.48;;;;;;;8.50;100.00;102039.38;5162125;28;20026;-73
2021/10/26 07:18:52;;;;;;;99.35;31.25;;;;;;;8.68;100.00;102038.84;5161920;28;20042;-73
2021/10/26 07:21:22;;;;;;;90.32;28.40;;;;;;;8.79;100.00;102041.50;5161329;28;20180;-73
2021/10/26 07:23:53;;;;;;;96.75;29.67;;;;;;;9.03;100.00;102041.28;5162367;28;20109;-73
2021/10/26 07:26:23;;;;;;;86.63;27.42;;;;;;;9.19;100.00;102046.25;5161618;28;20388;-73
2021/10/26 07:28:56;;;;;;;78.57;28.02;;;;;;;9.43;100.00;102052.19;5161618;28;20095;-73
2021/10/26 07:31:27;;;;;;;65.00;24.65;;;;;;;9.70;100.00;102049.03;5162186;28;20109;-73
2021/10/26 07:33:59;;;;;;;60.03;23.58;;;;;;;10.12;100.00;102059.69;5161878;28;20161;-73
2021/10/26 07:36:38;;;;;;;49.28;21.65;;;;;;;10.40;100.00;102066.19;5161388;28;20057;-73
2021/10/26 07:39:29;;;;;;;53.47;21.17;;;;;;;11.00;100.00;102063.53;5160167;28;20030;-73
2021/10/26 07:42:00;;;;;;;43.45;18.15;;;;;;;11.04;100.00;102068.47;5161625;28;20272;-73
2021/10/26 07:44:32;;;;;;;38.38;18.30;;;;;;;10.90;100.00;102066.19;5161725;28;20507;-74
2021/10/26 07:47:03;;;;;;;40.03;17.27;;;;;;;11.04;100.00;102071.13;5161687;28;20131;-73
2021/10/26 07:49:34;;;;;;;37.97;16.98;;;;;;;11.14;100.00;102076.53;5161560;28;20030;-74
2021/10/26 07:52:05;;;;;;;42.15;17.20;;;;;;;11.45;100.00;102084.47;5161648;28;20523;-73
2021/10/26 07:54:36;;;;;;;36.38;15.27;;;;;;;11.57;100.00;102077.97;5161597;28;20030;-74
2021/10/26 07:57:07;;;;;;;37.88;15.73;;;;;;;11.51;100.00;102083.91;5161441;28;20069;-73
2021/10/26 07:59:37;;;;;;;28.88;14.77;;;;;;;11.44;100.00;102088.97;5160869;28;20034;-74
2021/10/26 08:02:08;;;;;;;38.13;15.68;;;;;;;11.34;100.00;102086.28;5161232;28;20109;-73
2021/10/26 08:04:38;;;;;;;36.30;15.98;;;;;;;11.29;100.00;102088.56;5161227;28;20084;-73
2021/10/26 08:07:10;;;;;;;37.45;15.40;;;;;;;11.18;100.00;102087.84;5161363;28;20432;-73
2021/10/26 08:09:40;;;;;;;40.92;16.88;;;;;;;11.07;100.00;102088.84;5161074;28;20108;-73
2021/10/26 08:12:10;;;;;;;41.10;16.42;;;;;;;11.00;100.00;102088.53;5161126;28;20507;-73
2021/10/26 08:14:41;;;;;;;37.25;15.10;;;;;;;10.99;100.00;102100.25;5161346;28;20388;-73
2021/10/26 08:17:12;;;;;;;40.63;16.52;;;;;;;10.95;100.00;102112.28;5160937;28;20522;-73
2021/10/26 08:19:45;;;;;;;38.13;15.55;;;;;;;10.80;100.00;102109.13;5160634;28;20025;-73
2021/10/26 08:22:19;;;;;;;41.22;15.05;;;;;;;10.78;100.00;102108.41;5160601;28;20519;-73
2021/10/26 08:24:54;;;;;;;42.60;15.65;;;;;;;10.68;100.00;102096.78;5160966;28;20172;-73
2021/10/26 08:27:24;;;;;;;38.75;16.38;;;;;;;10.72;100.00;102100.06;5161093;28;20066;-73
2021/10/26 08:30:11;;;;;;;43.60;17.15;;;;;;;10.72;100.00;102097.38;5160660;28;20603;-73
2021/10/26 08:32:51;;;;;;;44.20;15.75;;;;;;;10.69;100.00;102106.53;5160277;28;20053;-73
2021/10/26 08:37:58;;;;;;;38.40;17.48;;;;;;;10.74;100.00;102096.22;5160936;28;20128;-73
2021/10/26 08:40:30;;;;;;;;;;;;;;;10.75;100.00;102094.44;5147470;28;20038;-73
2021/10/26 08:43:05;;;;;;;38.05;17.48;;;;;;;10.85;100.00;102093.47;5160865;28;20377;-73
2021/10/26 08:45:37;;;;;;;;;;;;;;;11.00;100.00;102099.28;5161077;28;20092;-73
2021/10/26 08:48:11;;;;;;;46.80;16.63;;;;;;;11.13;100.00;102091.78;5160893;28;20000;-73
2021/10/26 08:50:44;;;;;;;48.40;15.63;;;;;;;11.27;100.00;102087.00;5160370;28;20472;-73
2021/10/26 08:53:16;;;;;;;40.53;16.95;;;;;;;11.40;100.00;102087.59;5160725;28;20034;-73
2021/10/26 08:55:56;;;;;;;38.83;15.63;;;;;;;11.53;100.00;102090.81;5160385;28;20461;-73
2021/10/26 08:58:28;;;;;;;39.25;15.38;;;;;;;11.48;100.00;102082.34;5160779;28;20030;-73
2021/10/26 09:01:00;;;;;;;42.00;14.95;;;;;;;11.57;100.00;102089.56;5160413;28;20054;-73
2021/10/26 09:03:35;;;;;;;42.40;16.42;;;;;;;11.73;100.00;102080.06;5160490;28;20054;-73
2021/10/26 09:06:07;;;;;;;30.60;14.25;;;;;;;11.92;100.00;102083.59;5158721;28;20035;-73
2021/10/26 09:08:42;;;;;;;41.95;15.77;;;;;;;12.04;100.00;102084.25;5154585;28;20038;-74
2021/10/26 09:11:23;;;;;;;33.78;15.10;;;;;;;12.09;100.00;102076.59;5160130;28;20022;-74
2021/10/26 09:16:50;;;;;;;39.75;14.23;;;;;;;12.33;100.00;102070.72;5158976;28;20496;-74
2021/10/26 09:19:26;;;;;;;35.50;13.65;;;;;;;12.64;100.00;102076.66;5160131;28;20392;-74
2021/10/26 09:21:59;;;;;;;31.25;12.73;;;;;;;12.85;100.00;102080.94;5160813;28;20492;-73
2021/10/26 09:24:30;;;;;;;28.63;11.93;;;;;;;13.00;100.00;102074.03;5160594;28;20077;-73
2021/10/26 09:27:04;;;;;;;31.58;12.88;;;;;;;13.31;100.00;102081.81;5160326;28;20026;-73
2021/10/26 09:29:34;;;;;;;30.42;11.80;;;;;;;13.44;100.00;102085.78;5160179;28;20089;-73
2021/10/26 09:32:09;;;;;;;27.75;11.43;;;;;;;13.26;100.00;102082.25;5160543;28;20034;-74
2021/10/26 09:34:46;;;;;;;29.02;11.43;;;;;;;13.05;100.00;102076.25;5147856;28;20018;-74
2021/10/26 09:37:18;;;;;;;26.65;10.57;;;;;;;13.02;100.00;102093.59;5160247;28;20034;-73
2021/10/26 09:39:57;;;;;;;24.17;9.90;;;;;;;12.93;100.00;102099.88;5158457;28;20124;-73
2021/10/26 09:42:28;;;;;;;24.85;10.93;;;;;;;12.91;100.00;102104.59;5160496;28;20025;-73
2021/10/26 09:45:02;;;;;;;32.13;12.55;;;;;;;12.66;100.00;102103.44;5162062;28;20022;-73
2021/10/26 09:47:37;;;;;;;24.08;9.65;;;;;;;12.77;100.00;102097.00;5163782;28;20022;-73
2021/10/26 09:50:10;;;;;;;23.23;10.60;;;;;;;12.79;100.00;102095.00;5163875;28;20057;-73
2021/10/26 09:52:44;;;;;;;28.00;9.13;;;;;;;12.99;100.00;102099.28;5164083;28;20053;-73
2021/10/26 09:55:20;;;;;;;29.42;9.35;;;;;;;13.20;100.00;102090.91;5162535;28;20575;-73
2021/10/26 09:57:56;;;;;;;22.00;8.95;;;;;;;13.44;100.00;102095.72;5163919;28;20015;-73
2021/10/26 10:00:30;;;;;;;21.35;7.93;;;;;;;13.65;100.00;102085.44;5163034;28;20362;-73
2021/10/26 10:03:03;;;;;;;21.33;8.25;;;;;;;13.85;100.00;102091.50;5163964;28;20027;-74
2021/10/26 10:05:36;;;;;;;23.42;8.23;;;;;;;13.84;100.00;102089.81;5163689;28;20139;-74
2021/10/26 10:08:18;;;;;;;20.10;7.93;;;;;;;14.07;100.00;102095.53;5163536;28;20015;-74
2021/10/26 10:10:51;;;;;;;22.27;7.70;;;;;;;13.97;100.00;102086.72;5163071;28;20057;-74
2021/10/26 10:13:22;;;;;;;21.08;7.53;;;;;;;14.19;100.00;102082.63;5163591;28;20487;-73
2021/10/26 10:15:54;;;;;;;25.67;7.68;;;;;;;14.33;100.00;102087.44;5163281;28;20033;-74
2021/10/26 10:18:24;;;;;;;18.02;7.07;;;;;;;14.35;100.00;102079.16;5163458;28;20030;-74
2021/10/26 10:20:56;;;;;;;16.27;7.03;;;;;;;14.37;100.00;102078.00;5162706;28;20080;-74
2021/10/26 10:23:26;;;;;;;35.13;6.82;;;;;;;14.33;100.00;102081.19;5163851;28;20697;-74
2021/10/26 10:25:59;;;;;;;25.45;12.00;;;;;;;14.55;100.00;102082.50;5163099;28;20022;-74
2021/10/26 10:28:32;;;;;;;17.65;5.82;;;;;;;14.49;100.00;102082.13;5163243;28;20057;-74
2021/10/26 10:31:04;;;;;;;12.60;5.22;;;;;;;14.68;100.00;102083.72;5163212;28;20048;-74
2021/10/26 10:33:34;;;;;;;15.27;5.47;;;;;;;14.65;100.00;102078.66;5162974;28;20030;-74
2021/10/26 10:36:07;;;;;;;20.33;5.50;;;;;;;14.90;100.00;102076.03;5162810;28;20526;-73
2021/10/26 10:38:38;;;;;;;18.05;4.90;;;;;;;14.84;100.00;102085.63;5161792;28;20056;-74
2021/10/26 10:41:27;;;;;;;14.50;5.13;;;;;;;15.10;100.00;102074.72;5162966;28;20503;-74
2021/10/26 10:44:00;;;;;;;20.85;6.97;;;;;;;15.51;100.00;102074.75;5163075;28;20026;-74
2021/10/26 10:46:36;;;;;;;12.57;5.28;;;;;;;15.70;100.00;102081.72;5162788;28;20030;-74
2021/10/26 10:49:19;;;;;;;21.77;5.88;;;;;;;15.87;100.00;102075.31;5162536;28;20484;-74
2021/10/26 10:51:53;;;;;;;19.35;4.60;;;;;;;15.67;100.00;102085.63;5162966;28;20062;-74
2021/10/26 10:54:37;;;;;;;14.80;5.15;;;;;;;15.13;100.00;102090.63;5163016;28;20404;-74
2021/10/26 10:57:18;;;;;;;14.80;5.75;;;;;;;15.01;100.00;102100.06;5162658;28;20038;-74
2021/10/26 10:59:52;;;;;;;17.20;5.60;;;;;;;14.66;100.00;102101.09;5162096;28;20121;-74
2021/10/26 11:02:31;;;;;;;20.50;6.50;;;;;;;14.42;100.00;102099.97;5151820;28;20022;-73
2021/10/26 11:05:05;;;;;;;19.60;5.07;;;;;;;14.27;100.00;102103.44;5162047;28;20034;-76
2021/10/26 11:07:42;;;;;;;24.10;6.47;;;;;;;14.21;100.00;102094.97;5162313;28;20026;-74
2021/10/26 11:10:14;;;;;;;14.82;5.78;;;;;;;14.03;100.00;102088.75;5149280;28;20034;-74
2021/10/26 11:12:45;;;;;;;17.27;5.97;;;;;;;14.21;100.00;102086.03;5162130;28;20150;-74
2021/10/26 11:15:42;;;;;;;15.02;4.95;;;;;;;14.24;100.00;102078.44;5161781;28;20053;-74
2021/10/26 11:18:32;;;;;;;;;;;;;;;14.30;100.00;102076.94;5162562;28;20045;-74
2021/10/26 11:21:05;;;;;;;21.15;5.80;;;;;;;14.28;100.00;102078.13;5161686;28;20008;-74
2021/10/26 11:23:39;;;;;;;46.08;17.30;;;;;;;14.37;100.00;102080.69;5161778;28;20037;-74
2021/10/26 11:26:14;;;;;;;21.67;6.15;;;;;;;14.51;100.00;102082.00;5162082;28;20080;-74
2021/10/26 11:28:48;;;;;;;19.45;6.68;;;;;;;14.59;100.00;102082.00;5161971;28;20041;-75
2021/10/26 11:31:23;;;;;;;20.23;6.67;;;;;;;14.48;100.00;102087.69;5161762;28;20026;-74
2021/10/26 11:34:03;;;;;;;15.82;6.15;;;;;;;14.46;100.00;102084.31;5161653;28;20018;-75